sensor_id;sensor_type;location;lat;lon;timestamp;temperature;humidity
27306;DHT22;14792;50.886;6.468;2023-05-17T00:00:44;8.60;99.90
27306;DHT22;14792;50.886;6.468;2023-05-17T00:03:46;8.50;99.90
27306;DHT22;14792;50.886;6.468;2023-05-17T00:06:47;8.40;99.90
27306;DHT22;14792;50.886;6.468;2023-05-17T00:09:49;8.40;99.90
27306;DHT22;14792;50.886;6.468;2023-05-17T00:12:50;8.30;99.90
27306;DHT22;14792;50.886;6.468;2023-05-17T00:15:52;8.30;99.90
27306;DHT22;14792;50.886;6.468;2023-05-17T00:18:54;8.30;99.90
27306;DHT22;14792;50.886;6.468;2023-05-17T00:21:55;8.20;99.90
27306;DHT22;14792;50.886;6.468;2023-05-17T00:24:57;8.10;99.90
27306;DHT22;14792;50.886;6.468;2023-05-17T00:27:59;8.10;99.90
27306;DHT22;14792;50.886;6.468;2023-05-17T00:31:00;8.00;99.90
27306;DHT22;14792;50.886;6.468;2023-05-17T00:34:02;7.90;99.90
27306;DHT22;14792;50.886;6.468;2023-05-17T00:37:03;7.80;99.90
27306;DHT22;14792;50.886;6.468;2023-05-17T00:40:05;7.70;99.90
27306;DHT22;14792;50.886;6.468;2023-05-17T00:43:07;7.60;99.90
27306;DHT22;14792;50.886;6.468;2023-05-17T00:46:08;7.70;99.90
27306;DHT22;14792;50.886;6.468;2023-05-17T00:49:10;7.60;99.90
27306;DHT22;14792;50.886;6.468;2023-05-17T00:52:11;7.60;99.90
27306;DHT22;14792;50.886;6.468;2023-05-17T00:55:13;7.60;99.90
27306;DHT22;14792;50.886;6.468;2023-05-17T00:58:14;7.70;99.90
27306;DHT22;14792;50.886;6.468;2023-05-17T01:01:16;7.70;99.90
27306;DHT22;14792;50.886;6.468;2023-05-17T01:04:18;7.70;99.90
27306;DHT22;14792;50.886;6.468;2023-05-17T01:07:19;7.70;99.90
27306;DHT22;14792;50.886;6.468;2023-05-17T01:10:25;7.60;99.90
27306;DHT22;14792;50.886;6.468;2023-05-17T01:17:00;7.60;99.90
27306;DHT22;14792;50.886;6.468;2023-05-17T01:20:16;7.70;99.90
27306;DHT22;14792;50.886;6.468;2023-05-17T01:26:29;7.60;99.90
27306;DHT22;14792;50.886;6.468;2023-05-17T01:29:22;7.60;99.90
27306;DHT22;14792;50.886;6.468;2023-05-17T01:32:23;7.60;99.90
27306;DHT22;14792;50.886;6.468;2023-05-17T01:35:24;7.50;99.90
27306;DHT22;14792;50.886;6.468;2023-05-17T01:38:26;7.60;99.90
27306;DHT22;14792;50.886;6.468;2023-05-17T01:41:40;7.50;99.90
27306;DHT22;14792;50.886;6.468;2023-05-17T01:48:13;7.50;99.90
27306;DHT22;14792;50.886;6.468;2023-05-17T01:51:11;7.50;99.90
27306;DHT22;14792;50.886;6.468;2023-05-17T01:54:12;7.50;99.90
27306;DHT22;14792;50.886;6.468;2023-05-17T01:57:14;7.50;99.90
27306;DHT22;14792;50.886;6.468;2023-05-17T02:00:16;7.40;99.90
27306;DHT22;14792;50.886;6.468;2023-05-17T02:03:17;7.30;99.90
27306;DHT22;14792;50.886;6.468;2023-05-17T02:06:19;7.30;99.90
27306;DHT22;14792;50.886;6.468;2023-05-17T02:09:20;7.30;99.90
27306;DHT22;14792;50.886;6.468;2023-05-17T02:12:22;7.30;99.90
27306;DHT22;14792;50.886;6.468;2023-05-17T02:15:24;7.20;99.90
27306;DHT22;14792;50.886;6.468;2023-05-17T02:18:25;7.30;99.90
27306;DHT22;14792;50.886;6.468;2023-05-17T02:21:28;7.30;99.90
27306;DHT22;14792;50.886;6.468;2023-05-17T02:24:29;7.30;99.90
27306;DHT22;14792;50.886;6.468;2023-05-17T02:27:31;7.20;99.90
27306;DHT22;14792;50.886;6.468;2023-05-17T02:30:32;7.30;99.90
27306;DHT22;14792;50.886;6.468;2023-05-17T02:33:34;7.20;99.90
27306;DHT22;14792;50.886;6.468;2023-05-17T02:36:35;7.20;99.90
27306;DHT22;14792;50.886;6.468;2023-05-17T02:39:37;7.00;99.90
27306;DHT22;14792;50.886;6.468;2023-05-17T02:42:39;7.00;99.90
27306;DHT22;14792;50.886;6.468;2023-05-17T02:45:42;7.10;99.90
27306;DHT22;14792;50.886;6.468;2023-05-17T02:48:42;7.10;99.90
27306;DHT22;14792;50.886;6.468;2023-05-17T02:51:43;7.20;99.90
27306;DHT22;14792;50.886;6.468;2023-05-17T02:54:45;7.20;99.90
27306;DHT22;14792;50.886;6.468;2023-05-17T02:57:47;7.20;99.90
27306;DHT22;14792;50.886;6.468;2023-05-17T03:00:48;7.10;99.90
27306;DHT22;14792;50.886;6.468;2023-05-17T03:03:50;7.00;99.90
27306;DHT22;14792;50.886;6.468;2023-05-17T03:06:51;7.00;99.90
27306;DHT22;14792;50.886;6.468;2023-05-17T03:09:53;6.90;99.90
27306;DHT22;14792;50.886;6.468;2023-05-17T03:12:54;6.90;99.90
27306;DHT22;14792;50.886;6.468;2023-05-17T03:15:56;6.80;99.90
27306;DHT22;14792;50.886;6.468;2023-05-17T03:18:58;6.80;99.90
27306;DHT22;14792;50.886;6.468;2023-05-17T03:22:00;6.90;99.90
27306;DHT22;14792;50.886;6.468;2023-05-17T03:25:01;6.80;99.90
27306;DHT22;14792;50.886;6.468;2023-05-17T03:28:03;6.70;99.90
27306;DHT22;14792;50.886;6.468;2023-05-17T03:31:04;6.60;99.90
27306;DHT22;14792;50.886;6.468;2023-05-17T03:34:06;6.70;99.90
27306;DHT22;14792;50.886;6.468;2023-05-17T03:37:08;6.80;99.90
27306;DHT22;14792;50.886;6.468;2023-05-17T03:40:11;6.70;99.90
27306;DHT22;14792;50.886;6.468;2023-05-17T03:43:13;6.80;99.90
27306;DHT22;14792;50.886;6.468;2023-05-17T03:46:14;6.80;99.90
27306;DHT22;14792;50.886;6.468;2023-05-17T03:49:16;6.90;99.90
27306;DHT22;14792;50.886;6.468;2023-05-17T03:52:18;6.80;99.90
27306;DHT22;14792;50.886;6.468;2023-05-17T03:55:20;6.80;99.90
27306;DHT22;14792;50.886;6.468;2023-05-17T03:58:22;6.90;99.90
27306;DHT22;14792;50.886;6.468;2023-05-17T04:01:23;6.90;99.90
27306;DHT22;14792;50.886;6.468;2023-05-17T04:04:25;6.90;99.90
27306;DHT22;14792;50.886;6.468;2023-05-17T04:07:27;6.90;99.90
27306;DHT22;14792;50.886;6.468;2023-05-17T04:10:29;6.90;99.90
27306;DHT22;14792;50.886;6.468;2023-05-17T04:13:30;6.80;99.90
27306;DHT22;14792;50.886;6.468;2023-05-17T04:16:32;6.80;99.90
27306;DHT22;14792;50.886;6.468;2023-05-17T04:19:33;6.90;99.90
27306;DHT22;14792;50.886;6.468;2023-05-17T04:22:35;6.90;99.90
27306;DHT22;14792;50.886;6.468;2023-05-17T04:25:37;6.90;99.90
27306;DHT22;14792;50.886;6.468;2023-05-17T04:28:38;7.00;99.90
27306;DHT22;14792;50.886;6.468;2023-05-17T04:31:40;7.00;99.90
27306;DHT22;14792;50.886;6.468;2023-05-17T04:34:41;7.00;99.90
27306;DHT22;14792;50.886;6.468;2023-05-17T04:37:43;7.10;99.90
27306;DHT22;14792;50.886;6.468;2023-05-17T04:40:45;7.20;99.90
27306;DHT22;14792;50.886;6.468;2023-05-17T04:43:46;7.20;99.90
27306;DHT22;14792;50.886;6.468;2023-05-17T04:46:48;7.30;99.90
27306;DHT22;14792;50.886;6.468;2023-05-17T04:49:50;7.40;99.90
27306;DHT22;14792;50.886;6.468;2023-05-17T04:52:51;7.30;99.90
27306;DHT22;14792;50.886;6.468;2023-05-17T04:55:53;7.20;99.90
27306;DHT22;14792;50.886;6.468;2023-05-17T04:58:55;7.40;99.90
27306;DHT22;14792;50.886;6.468;2023-05-17T05:01:57;7.50;99.90
27306;DHT22;14792;50.886;6.468;2023-05-17T05:04:58;7.60;99.90
27306;DHT22;14792;50.886;6.468;2023-05-17T05:08:00;7.60;99.90
27306;DHT22;14792;50.886;6.468;2023-05-17T05:11:01;7.70;99.90
27306;DHT22;14792;50.886;6.468;2023-05-17T05:14:03;7.80;99.90
27306;DHT22;14792;50.886;6.468;2023-05-17T05:21:27;7.90;99.90
27306;DHT22;14792;50.886;6.468;2023-05-17T05:48:27;8.50;99.90
27306;DHT22;14792;50.886;6.468;2023-05-17T05:59:28;8.70;99.90
27306;DHT22;14792;50.886;6.468;2023-05-17T06:14:28;9.10;99.90
27306;DHT22;14792;50.886;6.468;2023-05-17T06:33:27;9.70;99.90
27306;DHT22;14792;50.886;6.468;2023-05-17T06:48:27;9.80;99.90
27306;DHT22;14792;50.886;6.468;2023-05-17T07:03:25;10.30;99.90
27306;DHT22;14792;50.886;6.468;2023-05-17T07:06:27;10.40;99.90
27306;DHT22;14792;50.886;6.468;2023-05-17T07:09:28;10.50;99.90
27306;DHT22;14792;50.886;6.468;2023-05-17T07:12:30;10.60;99.90
27306;DHT22;14792;50.886;6.468;2023-05-17T07:15:32;10.70;99.90
27306;DHT22;14792;50.886;6.468;2023-05-17T07:18:33;10.80;99.90
27306;DHT22;14792;50.886;6.468;2023-05-17T07:21:35;11.00;99.90
27306;DHT22;14792;50.886;6.468;2023-05-17T07:24:37;11.00;99.90
27306;DHT22;14792;50.886;6.468;2023-05-17T07:27:38;11.20;99.90
27306;DHT22;14792;50.886;6.468;2023-05-17T07:30:40;11.20;99.90
27306;DHT22;14792;50.886;6.468;2023-05-17T07:33:42;11.30;99.90
27306;DHT22;14792;50.886;6.468;2023-05-17T07:36:43;11.50;99.90
27306;DHT22;14792;50.886;6.468;2023-05-17T07:39:45;11.50;99.90
27306;DHT22;14792;50.886;6.468;2023-05-17T07:42:46;11.50;99.90
27306;DHT22;14792;50.886;6.468;2023-05-17T07:45:48;11.50;99.90
27306;DHT22;14792;50.886;6.468;2023-05-17T07:48:50;11.50;99.90
27306;DHT22;14792;50.886;6.468;2023-05-17T07:51:52;11.70;99.90
27306;DHT22;14792;50.886;6.468;2023-05-17T07:54:53;11.70;99.90
27306;DHT22;14792;50.886;6.468;2023-05-17T07:57:55;11.60;99.90
27306;DHT22;14792;50.886;6.468;2023-05-17T08:00:58;11.60;99.90
27306;DHT22;14792;50.886;6.468;2023-05-17T08:03:58;11.50;99.90
27306;DHT22;14792;50.886;6.468;2023-05-17T08:07:00;11.50;99.90
27306;DHT22;14792;50.886;6.468;2023-05-17T08:10:01;11.50;99.90
27306;DHT22;14792;50.886;6.468;2023-05-17T08:13:04;11.60;99.90
27306;DHT22;14792;50.886;6.468;2023-05-17T08:19:11;11.70;99.90
27306;DHT22;14792;50.886;6.468;2023-05-17T08:22:16;12.40;99.90
27306;DHT22;14792;50.886;6.468;2023-05-17T08:25:18;12.40;99.90
27306;DHT22;14792;50.886;6.468;2023-05-17T08:28:19;12.70;99.90
27306;DHT22;14792;50.886;6.468;2023-05-17T08:31:21;13.20;99.90
27306;DHT22;14792;50.886;6.468;2023-05-17T08:34:22;12.90;99.90
27306;DHT22;14792;50.886;6.468;2023-05-17T08:37:24;12.70;99.90
27306;DHT22;14792;50.886;6.468;2023-05-17T08:40:26;13.20;99.90
27306;DHT22;14792;50.886;6.468;2023-05-17T08:43:28;13.30;99.90
27306;DHT22;14792;50.886;6.468;2023-05-17T08:46:29;13.50;99.90
27306;DHT22;14792;50.886;6.468;2023-05-17T08:49:31;13.50;99.90
27306;DHT22;14792;50.886;6.468;2023-05-17T08:52:32;13.60;99.90
27306;DHT22;14792;50.886;6.468;2023-05-17T08:55:34;13.30;99.90
27306;DHT22;14792;50.886;6.468;2023-05-17T08:58:35;12.90;99.90
27306;DHT22;14792;50.886;6.468;2023-05-17T09:01:40;12.90;99.90
27306;DHT22;14792;50.886;6.468;2023-05-17T09:04:41;13.00;99.90
27306;DHT22;14792;50.886;6.468;2023-05-17T09:07:43;13.20;99.90
27306;DHT22;14792;50.886;6.468;2023-05-17T09:10:45;13.30;99.90
27306;DHT22;14792;50.886;6.468;2023-05-17T09:13:46;13.20;99.90
27306;DHT22;14792;50.886;6.468;2023-05-17T09:16:50;13.20;99.90
27306;DHT22;14792;50.886;6.468;2023-05-17T09:19:50;12.90;99.90
27306;DHT22;14792;50.886;6.468;2023-05-17T09:22:51;12.80;99.90
27306;DHT22;14792;50.886;6.468;2023-05-17T09:25:53;12.70;99.90
27306;DHT22;14792;50.886;6.468;2023-05-17T09:28:54;12.60;99.90
27306;DHT22;14792;50.886;6.468;2023-05-17T09:31:56;12.70;99.90
27306;DHT22;14792;50.886;6.468;2023-05-17T09:34:58;12.80;99.90
27306;DHT22;14792;50.886;6.468;2023-05-17T09:38:06;12.80;99.90
27306;DHT22;14792;50.886;6.468;2023-05-17T09:41:07;13.00;99.90
27306;DHT22;14792;50.886;6.468;2023-05-17T09:44:09;13.60;99.90
27306;DHT22;14792;50.886;6.468;2023-05-17T09:47:10;13.60;99.90
27306;DHT22;14792;50.886;6.468;2023-05-17T09:50:15;13.60;99.90
27306;DHT22;14792;50.886;6.468;2023-05-17T09:53:29;13.30;99.90
27306;DHT22;14792;50.886;6.468;2023-05-17T09:56:30;12.90;99.90
27306;DHT22;14792;50.886;6.468;2023-05-17T09:59:32;12.90;99.90
27306;DHT22;14792;50.886;6.468;2023-05-17T10:02:33;13.50;99.90
27306;DHT22;14792;50.886;6.468;2023-05-17T10:05:35;14.30;99.90
27306;DHT22;14792;50.886;6.468;2023-05-17T10:08:37;14.80;99.90
27306;DHT22;14792;50.886;6.468;2023-05-17T10:11:38;15.40;99.90
27306;DHT22;14792;50.886;6.468;2023-05-17T10:14:40;15.60;99.90
27306;DHT22;14792;50.886;6.468;2023-05-17T10:17:41;15.50;99.90
27306;DHT22;14792;50.886;6.468;2023-05-17T10:20:43;15.40;99.90
27306;DHT22;14792;50.886;6.468;2023-05-17T10:23:45;15.50;99.90
27306;DHT22;14792;50.886;6.468;2023-05-17T10:26:48;15.50;99.90
27306;DHT22;14792;50.886;6.468;2023-05-17T10:29:48;15.80;99.90
27306;DHT22;14792;50.886;6.468;2023-05-17T10:32:49;16.20;99.90
27306;DHT22;14792;50.886;6.468;2023-05-17T10:35:51;16.10;99.90
27306;DHT22;14792;50.886;6.468;2023-05-17T10:38:53;16.60;99.90
27306;DHT22;14792;50.886;6.468;2023-05-17T10:41:55;16.70;99.90
27306;DHT22;14792;50.886;6.468;2023-05-17T10:44:56;16.70;99.90
27306;DHT22;14792;50.886;6.468;2023-05-17T10:47:58;16.90;99.90
27306;DHT22;14792;50.886;6.468;2023-05-17T10:51:04;16.90;99.90
27306;DHT22;14792;50.886;6.468;2023-05-17T10:54:06;16.50;99.90
27306;DHT22;14792;50.886;6.468;2023-05-17T10:57:06;16.20;99.90
27306;DHT22;14792;50.886;6.468;2023-05-17T11:00:07;15.60;99.90
27306;DHT22;14792;50.886;6.468;2023-05-17T11:03:22;15.50;99.90
27306;DHT22;14792;50.886;6.468;2023-05-17T11:06:22;15.70;99.90
27306;DHT22;14792;50.886;6.468;2023-05-17T11:09:24;16.60;99.90
27306;DHT22;14792;50.886;6.468;2023-05-17T11:12:38;16.10;99.90
27306;DHT22;14792;50.886;6.468;2023-05-17T11:15:39;15.80;99.90
27306;DHT22;14792;50.886;6.468;2023-05-17T11:18:47;16.20;99.90
27306;DHT22;14792;50.886;6.468;2023-05-17T11:21:48;16.80;99.90
27306;DHT22;14792;50.886;6.468;2023-05-17T11:24:54;17.30;99.90
27306;DHT22;14792;50.886;6.468;2023-05-17T11:27:54;17.10;99.90
27306;DHT22;14792;50.886;6.468;2023-05-17T11:30:59;16.50;99.90
27306;DHT22;14792;50.886;6.468;2023-05-17T11:33:58;16.80;99.90
27306;DHT22;14792;50.886;6.468;2023-05-17T11:36:59;17.00;99.90
27306;DHT22;14792;50.886;6.468;2023-05-17T11:40:02;17.50;99.90
27306;DHT22;14792;50.886;6.468;2023-05-17T11:43:21;17.00;99.90
27306;DHT22;14792;50.886;6.468;2023-05-17T11:46:20;16.30;99.90
27306;DHT22;14792;50.886;6.468;2023-05-17T11:49:20;16.90;99.90
27306;DHT22;14792;50.886;6.468;2023-05-17T11:52:22;17.60;99.90
27306;DHT22;14792;50.886;6.468;2023-05-17T11:55:24;17.80;99.90
27306;DHT22;14792;50.886;6.468;2023-05-17T11:58:25;17.60;99.90
27306;DHT22;14792;50.886;6.468;2023-05-17T12:01:27;17.60;99.90
27306;DHT22;14792;50.886;6.468;2023-05-17T12:04:29;17.60;99.90
27306;DHT22;14792;50.886;6.468;2023-05-17T12:07:30;17.10;99.90
27306;DHT22;14792;50.886;6.468;2023-05-17T12:10:32;16.80;99.90
27306;DHT22;14792;50.886;6.468;2023-05-17T12:13:34;17.80;99.90
27306;DHT22;14792;50.886;6.468;2023-05-17T12:16:36;17.50;99.90
27306;DHT22;14792;50.886;6.468;2023-05-17T12:19:37;16.80;99.90
27306;DHT22;14792;50.886;6.468;2023-05-17T12:22:54;17.10;99.90
27306;DHT22;14792;50.886;6.468;2023-05-17T12:26:14;17.10;99.90
27306;DHT22;14792;50.886;6.468;2023-05-17T12:29:18;17.40;99.90
27306;DHT22;14792;50.886;6.468;2023-05-17T12:32:17;17.20;99.90
27306;DHT22;14792;50.886;6.468;2023-05-17T12:35:18;16.70;99.90
27306;DHT22;14792;50.886;6.468;2023-05-17T12:38:20;17.50;99.90
27306;DHT22;14792;50.886;6.468;2023-05-17T12:41:22;17.90;99.90
27306;DHT22;14792;50.886;6.468;2023-05-17T12:44:24;17.60;98.80
27306;DHT22;14792;50.886;6.468;2023-05-17T12:47:32;17.50;99.40
27306;DHT22;14792;50.886;6.468;2023-05-17T12:50:34;17.80;99.10
27306;DHT22;14792;50.886;6.468;2023-05-17T12:53:56;18.00;99.90
27306;DHT22;14792;50.886;6.468;2023-05-17T12:56:58;18.00;98.80
27306;DHT22;14792;50.886;6.468;2023-05-17T12:59:59;18.00;99.90
27306;DHT22;14792;50.886;6.468;2023-05-17T13:03:01;17.60;99.90
27306;DHT22;14792;50.886;6.468;2023-05-17T13:06:03;17.80;99.90
27306;DHT22;14792;50.886;6.468;2023-05-17T13:09:05;18.20;99.70
27306;DHT22;14792;50.886;6.468;2023-05-17T13:12:06;17.90;99.30
27306;DHT22;14792;50.886;6.468;2023-05-17T13:15:07;17.50;98.70
27306;DHT22;14792;50.886;6.468;2023-05-17T13:18:12;17.50;99.90
27306;DHT22;14792;50.886;6.468;2023-05-17T13:21:13;18.10;99.90
27306;DHT22;14792;50.886;6.468;2023-05-17T13:24:15;18.10;99.30
27306;DHT22;14792;50.886;6.468;2023-05-17T13:27:16;17.50;97.40
27306;DHT22;14792;50.886;6.468;2023-05-17T13:30:18;17.70;98.10
27306;DHT22;14792;50.886;6.468;2023-05-17T13:33:20;18.30;97.90
27306;DHT22;14792;50.886;6.468;2023-05-17T13:36:22;17.40;97.10
27306;DHT22;14792;50.886;6.468;2023-05-17T13:39:23;16.90;98.40
27306;DHT22;14792;50.886;6.468;2023-05-17T13:42:25;16.80;98.50
27306;DHT22;14792;50.886;6.468;2023-05-17T13:45:26;17.00;97.50
27306;DHT22;14792;50.886;6.468;2023-05-17T13:48:28;17.50;98.10
27306;DHT22;14792;50.886;6.468;2023-05-17T13:51:30;17.30;97.60
27306;DHT22;14792;50.886;6.468;2023-05-17T13:54:31;17.40;96.90
27306;DHT22;14792;50.886;6.468;2023-05-17T13:57:33;17.50;97.30
27306;DHT22;14792;50.886;6.468;2023-05-17T14:00:35;16.90;97.00
27306;DHT22;14792;50.886;6.468;2023-05-17T14:03:36;17.10;97.50
27306;DHT22;14792;50.886;6.468;2023-05-17T14:06:38;17.40;97.20
27306;DHT22;14792;50.886;6.468;2023-05-17T14:09:40;17.60;97.30
27306;DHT22;14792;50.886;6.468;2023-05-17T14:12:42;18.30;99.00
27306;DHT22;14792;50.886;6.468;2023-05-17T14:15:43;18.10;97.00
27306;DHT22;14792;50.886;6.468;2023-05-17T14:18:45;17.60;97.70
27306;DHT22;14792;50.886;6.468;2023-05-17T14:21:46;17.60;98.60
27306;DHT22;14792;50.886;6.468;2023-05-17T14:24:48;18.10;98.30
27306;DHT22;14792;50.886;6.468;2023-05-17T14:27:50;17.60;98.20
27306;DHT22;14792;50.886;6.468;2023-05-17T14:30:51;17.80;99.40
27306;DHT22;14792;50.886;6.468;2023-05-17T14:33:53;17.60;97.80
27306;DHT22;14792;50.886;6.468;2023-05-17T14:36:55;17.70;98.80
27306;DHT22;14792;50.886;6.468;2023-05-17T14:39:56;17.90;97.80
27306;DHT22;14792;50.886;6.468;2023-05-17T14:42:58;17.90;98.80
27306;DHT22;14792;50.886;6.468;2023-05-17T14:45:59;17.40;97.30
27306;DHT22;14792;50.886;6.468;2023-05-17T14:49:01;16.70;97.60
27306;DHT22;14792;50.886;6.468;2023-05-17T14:52:03;16.40;97.90
27306;DHT22;14792;50.886;6.468;2023-05-17T14:55:04;17.00;97.70
27306;DHT22;14792;50.886;6.468;2023-05-17T14:58:06;17.40;97.40
27306;DHT22;14792;50.886;6.468;2023-05-17T15:01:08;17.10;98.60
27306;DHT22;14792;50.886;6.468;2023-05-17T15:04:10;17.40;97.90
27306;DHT22;14792;50.886;6.468;2023-05-17T15:07:11;17.20;96.80
27306;DHT22;14792;50.886;6.468;2023-05-17T15:10:13;17.30;97.30
27306;DHT22;14792;50.886;6.468;2023-05-17T15:13:15;17.90;98.30
27306;DHT22;14792;50.886;6.468;2023-05-17T15:16:16;18.30;97.10
27306;DHT22;14792;50.886;6.468;2023-05-17T15:19:18;17.70;97.20
27306;DHT22;14792;50.886;6.468;2023-05-17T15:22:19;17.70;97.90
27306;DHT22;14792;50.886;6.468;2023-05-17T15:25:21;18.10;96.50
27306;DHT22;14792;50.886;6.468;2023-05-17T15:28:23;17.70;95.50
27306;DHT22;14792;50.886;6.468;2023-05-17T15:31:24;17.80;95.70
27306;DHT22;14792;50.886;6.468;2023-05-17T15:34:26;17.40;95.00
27306;DHT22;14792;50.886;6.468;2023-05-17T15:37:28;17.50;95.90
27306;DHT22;14792;50.886;6.468;2023-05-17T15:40:30;17.90;95.60
27306;DHT22;14792;50.886;6.468;2023-05-17T15:43:32;18.00;94.50
27306;DHT22;14792;50.886;6.468;2023-05-17T15:46:33;18.00;95.50
27306;DHT22;14792;50.886;6.468;2023-05-17T15:49:35;18.20;94.80
27306;DHT22;14792;50.886;6.468;2023-05-17T15:52:36;17.60;94.20
27306;DHT22;14792;50.886;6.468;2023-05-17T15:55:38;17.50;95.90
27306;DHT22;14792;50.886;6.468;2023-05-17T15:58:39;17.80;95.60
27306;DHT22;14792;50.886;6.468;2023-05-17T16:01:41;17.90;95.20
27306;DHT22;14792;50.886;6.468;2023-05-17T16:04:43;17.50;97.30
27306;DHT22;14792;50.886;6.468;2023-05-17T16:07:44;17.50;95.50
27306;DHT22;14792;50.886;6.468;2023-05-17T16:10:46;17.60;95.10
27306;DHT22;14792;50.886;6.468;2023-05-17T16:13:48;17.10;95.00
27306;DHT22;14792;50.886;6.468;2023-05-17T16:16:49;17.00;96.10
27306;DHT22;14792;50.886;6.468;2023-05-17T16:19:51;17.20;96.40
27306;DHT22;14792;50.886;6.468;2023-05-17T16:22:54;17.30;95.10
27306;DHT22;14792;50.886;6.468;2023-05-17T16:25:56;17.00;95.40
27306;DHT22;14792;50.886;6.468;2023-05-17T16:28:57;17.00;95.50
27306;DHT22;14792;50.886;6.468;2023-05-17T16:31:59;17.10;96.50
27306;DHT22;14792;50.886;6.468;2023-05-17T16:35:01;16.90;96.00
27306;DHT22;14792;50.886;6.468;2023-05-17T16:38:05;17.10;96.90
27306;DHT22;14792;50.886;6.468;2023-05-17T16:41:06;17.30;97.30
27306;DHT22;14792;50.886;6.468;2023-05-17T16:44:08;16.90;96.00
27306;DHT22;14792;50.886;6.468;2023-05-17T16:47:10;16.80;96.60
27306;DHT22;14792;50.886;6.468;2023-05-17T16:50:11;16.50;96.20
27306;DHT22;14792;50.886;6.468;2023-05-17T16:53:13;16.30;97.00
27306;DHT22;14792;50.886;6.468;2023-05-17T16:56:15;16.40;96.50
27306;DHT22;14792;50.886;6.468;2023-05-17T16:59:16;16.40;96.80
27306;DHT22;14792;50.886;6.468;2023-05-17T17:02:18;16.50;96.80
27306;DHT22;14792;50.886;6.468;2023-05-17T17:05:19;16.20;96.60
27306;DHT22;14792;50.886;6.468;2023-05-17T17:08:21;16.20;96.30
27306;DHT22;14792;50.886;6.468;2023-05-17T17:11:23;16.20;96.30
27306;DHT22;14792;50.886;6.468;2023-05-17T17:14:24;16.10;95.90
27306;DHT22;14792;50.886;6.468;2023-05-17T17:17:27;16.00;95.80
27306;DHT22;14792;50.886;6.468;2023-05-17T17:20:28;15.90;96.50
27306;DHT22;14792;50.886;6.468;2023-05-17T17:23:30;16.00;96.40
27306;DHT22;14792;50.886;6.468;2023-05-17T17:26:34;15.90;96.80
27306;DHT22;14792;50.886;6.468;2023-05-17T17:29:35;15.60;97.10
27306;DHT22;14792;50.886;6.468;2023-05-17T17:32:37;15.70;97.80
27306;DHT22;14792;50.886;6.468;2023-05-17T17:35:38;15.60;97.60
27306;DHT22;14792;50.886;6.468;2023-05-17T17:38:40;15.40;97.40
27306;DHT22;14792;50.886;6.468;2023-05-17T17:41:42;15.40;97.70
27306;DHT22;14792;50.886;6.468;2023-05-17T17:44:43;15.40;98.10
27306;DHT22;14792;50.886;6.468;2023-05-17T17:47:48;15.20;97.70
27306;DHT22;14792;50.886;6.468;2023-05-17T17:50:49;14.90;97.90
27306;DHT22;14792;50.886;6.468;2023-05-17T17:53:51;14.90;98.80
27306;DHT22;14792;50.886;6.468;2023-05-17T17:56:52;14.90;98.30
27306;DHT22;14792;50.886;6.468;2023-05-17T17:59:54;14.80;99.30
27306;DHT22;14792;50.886;6.468;2023-05-17T18:02:56;14.60;99.80
27306;DHT22;14792;50.886;6.468;2023-05-17T18:05:57;14.40;99.90
27306;DHT22;14792;50.886;6.468;2023-05-17T18:08:59;14.30;99.90
27306;DHT22;14792;50.886;6.468;2023-05-17T18:12:01;14.10;99.90
27306;DHT22;14792;50.886;6.468;2023-05-17T18:15:03;14.00;99.90
27306;DHT22;14792;50.886;6.468;2023-05-17T18:18:04;14.00;99.90
27306;DHT22;14792;50.886;6.468;2023-05-17T18:21:06;13.90;99.90
27306;DHT22;14792;50.886;6.468;2023-05-17T18:24:07;13.90;99.90
27306;DHT22;14792;50.886;6.468;2023-05-17T18:27:09;13.80;99.90
27306;DHT22;14792;50.886;6.468;2023-05-17T18:30:14;13.70;99.90
27306;DHT22;14792;50.886;6.468;2023-05-17T18:33:16;13.60;99.90
27306;DHT22;14792;50.886;6.468;2023-05-17T18:36:17;13.40;99.90
27306;DHT22;14792;50.886;6.468;2023-05-17T18:39:19;13.40;99.90
27306;DHT22;14792;50.886;6.468;2023-05-17T18:42:22;13.30;99.90
27306;DHT22;14792;50.886;6.468;2023-05-17T18:45:24;13.30;99.90
27306;DHT22;14792;50.886;6.468;2023-05-17T18:48:25;13.20;99.90
27306;DHT22;14792;50.886;6.468;2023-05-17T18:51:27;13.10;99.90
27306;DHT22;14792;50.886;6.468;2023-05-17T18:54:29;13.00;99.90
27306;DHT22;14792;50.886;6.468;2023-05-17T18:57:31;12.90;99.90
27306;DHT22;14792;50.886;6.468;2023-05-17T19:00:33;12.80;99.90
27306;DHT22;14792;50.886;6.468;2023-05-17T19:03:34;12.60;99.90
27306;DHT22;14792;50.886;6.468;2023-05-17T19:06:36;12.60;99.90
27306;DHT22;14792;50.886;6.468;2023-05-17T19:09:38;12.50;99.90
27306;DHT22;14792;50.886;6.468;2023-05-17T19:12:40;12.40;99.90
27306;DHT22;14792;50.886;6.468;2023-05-17T19:15:41;12.30;99.90
27306;DHT22;14792;50.886;6.468;2023-05-17T19:18:43;12.20;99.90
27306;DHT22;14792;50.886;6.468;2023-05-17T19:21:45;12.10;99.90
27306;DHT22;14792;50.886;6.468;2023-05-17T19:24:47;12.00;99.90
27306;DHT22;14792;50.886;6.468;2023-05-17T19:27:48;11.90;99.90
27306;DHT22;14792;50.886;6.468;2023-05-17T19:30:50;11.80;99.90
27306;DHT22;14792;50.886;6.468;2023-05-17T19:33:52;11.80;99.90
27306;DHT22;14792;50.886;6.468;2023-05-17T19:36:55;11.80;99.90
27306;DHT22;14792;50.886;6.468;2023-05-17T19:39:57;11.70;99.90
27306;DHT22;14792;50.886;6.468;2023-05-17T19:42:58;11.70;99.90
27306;DHT22;14792;50.886;6.468;2023-05-17T19:46:01;11.60;99.90
27306;DHT22;14792;50.886;6.468;2023-05-17T19:49:02;11.60;99.90
27306;DHT22;14792;50.886;6.468;2023-05-17T19:52:04;11.50;99.90
27306;DHT22;14792;50.886;6.468;2023-05-17T19:55:05;11.40;99.90
27306;DHT22;14792;50.886;6.468;2023-05-17T19:58:07;11.40;99.90
27306;DHT22;14792;50.886;6.468;2023-05-17T20:01:08;11.40;99.90
27306;DHT22;14792;50.886;6.468;2023-05-17T20:04:10;11.40;99.90
27306;DHT22;14792;50.886;6.468;2023-05-17T20:07:12;11.30;99.90
27306;DHT22;14792;50.886;6.468;2023-05-17T20:10:13;11.30;99.90
27306;DHT22;14792;50.886;6.468;2023-05-17T20:13:15;11.20;99.90
27306;DHT22;14792;50.886;6.468;2023-05-17T20:16:16;11.10;99.90
27306;DHT22;14792;50.886;6.468;2023-05-17T20:19:18;11.10;99.90
27306;DHT22;14792;50.886;6.468;2023-05-17T20:22:20;11.00;99.90
27306;DHT22;14792;50.886;6.468;2023-05-17T20:25:21;11.00;99.90
27306;DHT22;14792;50.886;6.468;2023-05-17T20:28:23;11.00;99.90
27306;DHT22;14792;50.886;6.468;2023-05-17T20:31:25;10.90;99.90
27306;DHT22;14792;50.886;6.468;2023-05-17T20:34:27;10.90;99.90
27306;DHT22;14792;50.886;6.468;2023-05-17T20:37:29;10.80;99.90
27306;DHT22;14792;50.886;6.468;2023-05-17T20:40:30;10.80;99.90
27306;DHT22;14792;50.886;6.468;2023-05-17T20:43:32;10.70;99.90
27306;DHT22;14792;50.886;6.468;2023-05-17T20:46:34;10.70;99.90
27306;DHT22;14792;50.886;6.468;2023-05-17T20:49:35;10.70;99.90
27306;DHT22;14792;50.886;6.468;2023-05-17T20:52:37;10.60;99.90
27306;DHT22;14792;50.886;6.468;2023-05-17T20:55:39;10.60;99.90